createdAt,value
2016-09-11T00:00:00.594Z,0
2016-09-11T00:01:00.626Z,0
2016-09-11T00:02:00.643Z,0
2016-09-11T00:03:00.696Z,0
2016-09-11T00:04:15.673Z,0
2016-09-11T00:05:15.675Z,0
2016-09-11T00:06:00.870Z,0
2016-09-11T00:07:01.077Z,0
2016-09-11T00:08:00.826Z,0
2016-09-11T00:09:15.842Z,0
2016-09-11T00:10:01.176Z,0
2016-09-11T00:11:01.021Z,0
2016-09-11T00:12:00.943Z,0
2016-09-11T00:13:01.000Z,0
2016-09-11T00:14:01.549Z,0
2016-09-11T00:15:02.677Z,0
2016-09-11T00:16:01.056Z,0
2016-09-11T00:17:01.083Z,0
2016-09-11T00:18:01.370Z,0
2016-09-11T00:19:01.302Z,0
2016-09-11T00:20:01.098Z,0
2016-09-11T00:21:01.691Z,0
2016-09-11T00:22:01.226Z,0
2016-09-11T00:23:01.516Z,0
2016-09-11T00:24:16.458Z,0
2016-09-11T00:25:01.246Z,0
2016-09-11T00:27:01.316Z,0
2016-09-11T00:28:01.319Z,0
2016-09-11T00:29:01.686Z,0
2016-09-11T00:30:01.411Z,0
2016-09-11T00:31:01.913Z,0
2016-09-11T00:32:01.774Z,0
2016-09-11T00:33:01.449Z,0
2016-09-11T00:34:02.119Z,0
2016-09-11T00:35:16.473Z,0
2016-09-11T00:36:16.448Z,0
2016-09-11T00:38:01.915Z,0
2016-09-11T00:39:01.611Z,0
2016-09-11T00:40:02.164Z,0
2016-09-11T00:42:01.770Z,0
2016-09-11T00:44:01.872Z,0
2016-09-11T00:45:01.914Z,0
2016-09-11T00:46:02.009Z,0
2016-09-11T00:47:02.215Z,0
2016-09-11T00:48:01.841Z,0
2016-09-11T00:49:17.151Z,0
2016-09-11T00:50:16.804Z,0
2016-09-11T00:51:01.984Z,0
2016-09-11T00:52:16.872Z,0
2016-09-11T00:53:01.967Z,0
2016-09-11T00:54:02.332Z,0
2016-09-11T00:55:02.713Z,0
2016-09-11T00:56:02.050Z,0
2016-09-11T00:57:32.261Z,0
2016-09-11T00:58:02.409Z,0
2016-09-11T01:00:02.243Z,0
2016-09-11T01:01:17.089Z,0
2016-09-11T01:02:02.790Z,0
2016-09-11T01:04:02.295Z,0
2016-09-11T01:05:17.407Z,0
2016-09-11T01:06:02.474Z,0
2016-09-11T01:07:02.399Z,0
2016-09-11T01:08:02.405Z,0
2016-09-11T01:09:02.692Z,0
2016-09-11T01:10:03.217Z,0
2016-09-11T01:13:17.393Z,0
2016-09-11T01:15:02.703Z,0
2016-09-11T01:16:17.497Z,0
2016-09-11T01:17:02.593Z,0
2016-09-11T01:18:03.052Z,0
2016-09-11T01:20:17.585Z,0
2016-09-11T01:22:03.308Z,0
2016-09-11T01:23:02.753Z,0
2016-09-11T01:24:03.261Z,0
2016-09-11T01:26:02.950Z,0
2016-09-11T01:27:02.852Z,0
2016-09-11T01:28:02.900Z,0
2016-09-11T01:29:17.816Z,0
2016-09-11T01:30:03.005Z,0
2016-09-11T01:31:03.006Z,0
2016-09-11T01:32:03.121Z,0
2016-09-11T01:33:03.057Z,0
2016-09-11T01:34:03.011Z,0
2016-09-11T01:35:17.979Z,0
2016-09-11T01:36:03.076Z,0
2016-09-11T01:37:03.116Z,0
2016-09-11T01:38:03.227Z,0
2016-09-11T01:39:03.176Z,0
2016-09-11T01:40:03.406Z,0
2016-09-11T01:41:03.272Z,0
2016-09-11T01:42:03.243Z,0
2016-09-11T01:43:03.259Z,0
2016-09-11T01:44:18.265Z,0
2016-09-11T01:45:18.303Z,0
2016-09-11T01:46:03.771Z,0
2016-09-11T01:47:03.359Z,0
2016-09-11T01:48:03.396Z,0
2016-09-11T01:49:04.653Z,0
2016-09-11T01:50:18.366Z,0
2016-09-11T01:51:03.752Z,0
2016-09-11T01:52:03.495Z,0
2016-09-11T01:53:04.296Z,0
2016-09-11T01:54:03.795Z,0
2016-09-11T01:55:03.621Z,0
2016-09-11T01:56:03.910Z,0
2016-09-11T01:57:18.584Z,0
2016-09-11T01:58:03.803Z,0
2016-09-11T01:59:18.656Z,0
2016-09-11T02:01:04.299Z,0
2016-09-11T02:02:03.815Z,0
2016-09-11T02:03:05.076Z,0
2016-09-11T02:04:18.722Z,0
2016-09-11T02:05:18.738Z,0
2016-09-11T02:06:03.848Z,0
2016-09-11T02:08:03.891Z,0
2016-09-11T02:09:04.445Z,0
2016-09-11T02:10:05.568Z,0
2016-09-11T02:11:18.906Z,0
2016-09-11T02:12:04.014Z,0
2016-09-11T02:13:04.052Z,0
2016-09-11T02:14:18.975Z,0
2016-09-11T02:15:04.795Z,0
2016-09-11T02:16:19.030Z,0
2016-09-11T02:17:04.460Z,0
2016-09-11T02:18:04.331Z,0
2016-09-11T02:19:05.069Z,0
2016-09-11T02:20:04.783Z,0
2016-09-11T02:21:04.323Z,0
2016-09-11T02:22:04.652Z,0
2016-09-11T02:23:04.346Z,0
2016-09-11T02:24:04.627Z,0
2016-09-11T02:25:05.081Z,0
2016-09-11T02:26:19.595Z,0
2016-09-11T02:27:04.390Z,0
2016-09-11T02:28:04.411Z,0
2016-09-11T02:29:19.355Z,0
2016-09-11T02:30:05.957Z,0
2016-09-11T02:31:04.491Z,0
2016-09-11T02:32:19.450Z,0
2016-09-11T02:33:04.646Z,0
2016-09-11T02:34:19.807Z,0
2016-09-11T02:35:05.044Z,0
2016-09-11T02:36:04.931Z,0
2016-09-11T02:37:04.975Z,0
2016-09-11T02:38:19.920Z,0
2016-09-11T02:39:05.523Z,0
2016-09-11T02:40:05.471Z,0
2016-09-11T02:41:04.753Z,0
2016-09-11T02:42:05.424Z,0
2016-09-11T02:43:19.822Z,0
2016-09-11T02:45:04.944Z,0
2016-09-11T02:46:05.060Z,0
2016-09-11T02:47:05.248Z,0
2016-09-11T02:48:19.997Z,0
2016-09-11T02:49:05.028Z,0
2016-09-11T02:50:05.031Z,0
2016-09-11T02:51:05.262Z,0
2016-09-11T02:52:19.958Z,0
2016-09-11T02:53:05.521Z,0
2016-09-11T02:54:05.296Z,0
2016-09-11T02:55:05.129Z,0
2016-09-11T02:56:05.675Z,0
2016-09-11T02:57:05.378Z,0
2016-09-11T02:58:05.212Z,0
2016-09-11T02:59:05.898Z,0
2016-09-11T03:00:20.509Z,0
2016-09-11T03:02:35.124Z,0
2016-09-11T03:03:05.303Z,0
2016-09-11T03:04:35.513Z,0
2016-09-11T03:05:20.287Z,0
2016-09-11T03:06:20.305Z,0
2016-09-11T03:07:05.448Z,0
2016-09-11T03:08:05.494Z,0
2016-09-11T03:09:05.481Z,0
2016-09-11T03:10:06.567Z,0
2016-09-11T03:11:05.598Z,0
2016-09-11T03:13:20.533Z,0
2016-09-11T03:15:07.121Z,0
2016-09-11T03:17:05.988Z,0
2016-09-11T03:18:06.507Z,0
2016-09-11T03:19:20.681Z,0
2016-09-11T03:20:35.889Z,0
2016-09-11T03:21:21.026Z,0
2016-09-11T03:22:05.898Z,0
2016-09-11T03:23:06.223Z,0
2016-09-11T03:24:06.053Z,0
2016-09-11T03:25:06.014Z,0
2016-09-11T03:26:06.256Z,0
2016-09-11T03:27:06.301Z,0
2016-09-11T03:28:05.969Z,0
2016-09-11T03:29:06.374Z,0
2016-09-11T03:30:35.850Z,0
2016-09-11T03:31:06.424Z,0
2016-09-11T03:32:06.102Z,0
2016-09-11T03:34:06.142Z,0
2016-09-11T03:35:07.082Z,0
2016-09-11T03:36:21.132Z,0
2016-09-11T03:37:07.227Z,0
2016-09-11T03:38:06.215Z,0
2016-09-11T03:40:21.782Z,0
2016-09-11T03:41:06.288Z,0
2016-09-11T03:42:06.373Z,0
2016-09-11T03:43:06.365Z,0
2016-09-11T03:44:06.984Z,0
2016-09-11T03:45:07.114Z,0
2016-09-11T03:46:06.492Z,0
2016-09-11T03:47:06.650Z,0
2016-09-11T03:48:06.509Z,0
2016-09-11T03:49:06.846Z,0
2016-09-11T03:50:07.717Z,0
2016-09-11T03:51:21.481Z,0
2016-09-11T03:52:06.606Z,0
2016-09-11T03:53:07.155Z,0
2016-09-11T03:54:06.933Z,0
2016-09-11T03:55:07.089Z,0
2016-09-11T03:56:21.696Z,0
2016-09-11T03:57:07.021Z,0
2016-09-11T03:58:06.813Z,0
2016-09-11T03:59:07.390Z,0
2016-09-11T04:00:21.938Z,0
2016-09-11T04:01:06.814Z,0
2016-09-11T04:02:21.746Z,0
2016-09-11T04:03:07.470Z,0
2016-09-11T04:04:07.947Z,0
2016-09-11T04:05:07.685Z,0
2016-09-11T04:06:07.171Z,0
2016-09-11T04:07:21.884Z,0
2016-09-11T04:08:22.311Z,0
2016-09-11T04:09:07.071Z,0
2016-09-11T04:10:07.095Z,0
2016-09-11T04:11:22.054Z,0
2016-09-11T04:12:07.377Z,0
2016-09-11T04:13:07.100Z,0
2016-09-11T04:14:07.239Z,0
2016-09-11T04:15:07.189Z,0
2016-09-11T04:16:07.186Z,0
2016-09-11T04:17:22.147Z,0
2016-09-11T04:18:22.151Z,0
2016-09-11T04:19:22.172Z,0
2016-09-11T04:20:07.395Z,0
2016-09-11T04:21:22.241Z,0
2016-09-11T04:22:22.263Z,0
2016-09-11T04:23:22.286Z,0
2016-09-11T04:24:07.618Z,0
2016-09-11T04:25:16.701Z,0
2016-09-11T04:26:08.057Z,0
2016-09-11T04:27:08.164Z,0
2016-09-11T04:28:07.475Z,0
2016-09-11T04:29:07.501Z,0
2016-09-11T04:30:07.526Z,0
2016-09-11T04:31:07.589Z,0
2016-09-11T04:32:07.578Z,0
2016-09-11T04:33:07.590Z,0
2016-09-11T04:34:07.624Z,5
2016-09-11T04:35:07.659Z,5
2016-09-11T04:36:22.604Z,5
2016-09-11T04:37:07.724Z,5
2016-09-11T04:38:22.659Z,5
2016-09-11T04:39:22.683Z,5
2016-09-11T04:40:07.791Z,5
2016-09-11T04:41:07.809Z,5
2016-09-11T04:42:07.831Z,5
2016-09-11T04:43:07.854Z,5
2016-09-11T04:44:07.891Z,5
2016-09-11T04:45:07.915Z,10
2016-09-11T04:46:08.063Z,10
2016-09-11T04:47:07.964Z,10
2016-09-11T04:48:22.914Z,10
2016-09-11T04:49:08.011Z,10
2016-09-11T04:50:08.035Z,10
2016-09-11T04:51:08.057Z,10
2016-09-11T04:52:08.084Z,15
2016-09-11T04:53:08.118Z,15
2016-09-11T04:54:23.082Z,15
2016-09-11T04:55:08.174Z,15
2016-09-11T04:56:08.199Z,20
2016-09-11T04:57:08.227Z,20
2016-09-11T04:58:08.291Z,20
2016-09-11T04:59:08.271Z,25
2016-09-11T05:00:08.293Z,25
2016-09-11T05:01:08.316Z,25
2016-09-11T05:03:08.370Z,30
2016-09-11T05:04:08.530Z,35
2016-09-11T05:05:23.349Z,35
2016-09-11T05:06:23.388Z,40
2016-09-11T05:07:08.500Z,40
2016-09-11T05:08:08.498Z,45
2016-09-11T05:09:08.516Z,45
2016-09-11T05:10:08.630Z,50
2016-09-11T05:11:08.577Z,50
2016-09-11T05:12:08.643Z,50
2016-09-11T05:13:08.654Z,50
2016-09-11T05:14:08.649Z,55
2016-09-11T05:15:08.672Z,55
2016-09-11T05:16:08.700Z,55
2016-09-11T05:17:08.727Z,60
2016-09-11T05:18:08.751Z,60
2016-09-11T05:19:08.776Z,60
2016-09-11T05:20:08.804Z,65
2016-09-11T05:21:08.837Z,75
2016-09-11T05:22:08.859Z,75
2016-09-11T05:23:08.881Z,75
2016-09-11T05:24:08.917Z,75
2016-09-11T05:26:23.875Z,85
2016-09-11T05:27:08.985Z,85
2016-09-11T05:28:09.037Z,85
2016-09-11T05:29:09.147Z,85
2016-09-11T05:30:09.132Z,90
2016-09-11T05:31:09.081Z,90
2016-09-11T05:32:09.109Z,95
2016-09-11T05:33:09.140Z,95
2016-09-11T05:35:09.186Z,100
2016-09-11T05:37:09.253Z,105
2016-09-11T05:38:09.275Z,110
2016-09-11T05:39:24.233Z,115
2016-09-11T05:40:09.315Z,120
2016-09-11T05:41:09.350Z,130
2016-09-11T05:42:24.292Z,140
2016-09-11T05:43:09.395Z,155
2016-09-11T05:44:09.418Z,150
2016-09-11T05:45:09.444Z,135
2016-09-11T05:46:09.479Z,135
2016-09-11T05:47:09.498Z,140
2016-09-11T05:48:09.524Z,145
2016-09-11T05:49:24.474Z,150
2016-09-11T05:50:09.584Z,160
2016-09-11T05:51:09.613Z,190
2016-09-11T05:52:24.552Z,205
2016-09-11T05:53:09.969Z,260
2016-09-11T05:54:24.623Z,360
2016-09-11T05:55:09.701Z,365
2016-09-11T05:56:09.741Z,360
2016-09-11T05:57:09.765Z,365
2016-09-11T05:58:24.718Z,370
2016-09-11T05:59:24.734Z,370
2016-09-11T06:00:09.857Z,370
2016-09-11T06:01:10.161Z,355
2016-09-11T06:02:09.890Z,355
2016-09-11T06:03:09.923Z,345
2016-09-11T06:04:10.004Z,345
2016-09-11T06:05:10.025Z,355
2016-09-11T06:06:10.015Z,345
2016-09-11T06:08:10.077Z,320
2016-09-11T06:09:10.083Z,320
2016-09-11T06:10:25.047Z,320
2016-09-11T06:11:25.085Z,320
2016-09-11T06:13:10.515Z,320
2016-09-11T06:14:40.092Z,320
2016-09-11T06:15:25.793Z,310
2016-09-11T06:17:10.377Z,325
2016-09-11T06:18:10.733Z,325
2016-09-11T06:19:25.391Z,340
2016-09-11T06:20:11.785Z,340
2016-09-11T06:21:11.984Z,350
2016-09-11T06:22:10.502Z,365
2016-09-11T06:23:10.535Z,395
2016-09-11T06:24:10.596Z,485
2016-09-11T06:25:13.805Z,830
2016-09-11T06:26:10.954Z,1010
2016-09-11T06:27:25.669Z,830
2016-09-11T06:28:11.319Z,775
2016-09-11T06:29:25.642Z,795
2016-09-11T06:30:26.171Z,875
2016-09-11T06:31:25.746Z,810
2016-09-11T06:32:40.764Z,765
2016-09-11T06:33:26.201Z,795
2016-09-11T06:34:11.199Z,810
2016-09-11T06:35:11.310Z,810
2016-09-11T06:36:11.248Z,815
2016-09-11T06:37:26.268Z,825
2016-09-11T06:38:11.171Z,850
2016-09-11T06:39:11.064Z,870
2016-09-11T06:40:11.265Z,825
2016-09-11T06:41:11.521Z,810
2016-09-11T06:42:11.217Z,780
2016-09-11T06:43:11.611Z,790
2016-09-11T06:44:11.287Z,810
2016-09-11T06:45:27.794Z,820
2016-09-11T06:46:11.444Z,845
2016-09-11T06:47:11.512Z,870
2016-09-11T06:48:11.416Z,860
2016-09-11T06:50:12.401Z,860
2016-09-11T06:51:11.648Z,855
2016-09-11T06:52:11.483Z,845
2016-09-11T06:53:12.685Z,885
2016-09-11T06:54:26.482Z,920
2016-09-11T06:55:11.974Z,910
2016-09-11T06:56:11.907Z,915
2016-09-11T06:57:11.650Z,895
2016-09-11T06:58:26.614Z,890
2016-09-11T06:59:11.750Z,890
2016-09-11T07:00:12.704Z,905
2016-09-11T07:02:11.877Z,915
2016-09-11T07:03:11.886Z,890
2016-09-11T07:04:26.945Z,915
2016-09-11T07:05:11.969Z,920
2016-09-11T07:06:27.499Z,930
2016-09-11T07:07:12.027Z,910
2016-09-11T07:08:12.101Z,900
2016-09-11T07:09:12.274Z,885
2016-09-11T07:10:12.350Z,895
2016-09-11T07:11:12.142Z,875
2016-09-11T07:12:42.024Z,875
2016-09-11T07:13:27.138Z,885
2016-09-11T07:14:12.297Z,885
2016-09-11T07:15:12.408Z,880
2016-09-11T07:16:27.247Z,875
2016-09-11T07:17:27.266Z,890
2016-09-11T07:18:12.548Z,885
2016-09-11T07:19:12.799Z,920
2016-09-11T07:21:12.529Z,925
2016-09-11T07:22:12.854Z,895
2016-09-11T07:23:12.730Z,920
2016-09-11T07:24:12.614Z,945
2016-09-11T07:25:13.050Z,985
2016-09-11T07:26:12.714Z,985
2016-09-11T07:28:12.804Z,935
2016-09-11T07:29:13.127Z,945
2016-09-11T07:30:27.812Z,915
2016-09-11T07:31:12.865Z,890
2016-09-11T07:32:13.683Z,885
2016-09-11T07:33:27.832Z,870
2016-09-11T07:34:27.877Z,860
2016-09-11T07:35:13.006Z,875
2016-09-11T07:36:27.943Z,840
2016-09-11T07:37:28.475Z,840
2016-09-11T07:38:15.171Z,880
2016-09-11T07:39:13.846Z,885
2016-09-11T07:40:28.410Z,880
2016-09-11T07:41:28.179Z,855
2016-09-11T07:42:13.246Z,865
2016-09-11T07:43:28.211Z,870
2016-09-11T07:44:13.432Z,885
2016-09-11T07:45:28.443Z,855
2016-09-11T07:47:13.447Z,885
2016-09-11T07:48:13.448Z,880
2016-09-11T07:49:43.462Z,885
2016-09-11T07:50:13.649Z,885
2016-09-11T07:51:14.004Z,885
2016-09-11T07:52:28.541Z,855
2016-09-11T07:53:13.679Z,845
2016-09-11T07:54:13.712Z,875
2016-09-11T07:55:14.378Z,865
2016-09-11T07:56:14.517Z,865
2016-09-11T07:57:13.765Z,850
2016-09-11T07:58:14.413Z,845
2016-09-11T07:59:14.152Z,845
2016-09-11T08:00:14.086Z,830
2016-09-11T08:01:14.591Z,830
2016-09-11T08:02:13.952Z,830
2016-09-11T08:03:28.945Z,805
2016-09-11T08:04:43.894Z,805
2016-09-11T08:05:14.282Z,790
2016-09-11T08:06:14.118Z,775
2016-09-11T08:07:14.468Z,765
2016-09-11T08:08:29.409Z,760
2016-09-11T08:09:14.580Z,760
2016-09-11T08:10:14.254Z,780
2016-09-11T08:11:29.557Z,800
2016-09-11T08:12:14.429Z,815
2016-09-11T08:13:14.741Z,800
2016-09-11T08:14:14.406Z,805
2016-09-11T08:15:14.458Z,795
2016-09-11T08:16:44.307Z,770
2016-09-11T08:20:15.080Z,750
2016-09-11T08:21:14.747Z,730
2016-09-11T08:22:14.992Z,740
2016-09-11T08:23:14.779Z,735
2016-09-11T08:24:15.367Z,715
2016-09-11T08:25:14.943Z,700
2016-09-11T08:26:15.087Z,705
2016-09-11T08:27:30.393Z,695
2016-09-11T08:28:15.529Z,695
2016-09-11T08:29:14.923Z,675
2016-09-11T08:30:15.091Z,670
2016-09-11T08:31:29.927Z,665
2016-09-11T08:33:15.398Z,655
2016-09-11T08:34:15.103Z,640
2016-09-11T08:35:15.234Z,635
2016-09-11T08:36:30.128Z,630
2016-09-11T08:37:30.168Z,620
2016-09-11T08:38:15.262Z,615
2016-09-11T08:39:15.598Z,605
2016-09-11T08:40:15.334Z,600
2016-09-11T08:41:15.364Z,585
2016-09-11T08:42:15.688Z,570
2016-09-11T08:43:15.654Z,565
2016-09-11T08:44:15.749Z,570
2016-09-11T08:45:30.724Z,560
2016-09-11T08:46:30.589Z,550
2016-09-11T08:48:30.615Z,530
2016-09-11T08:49:15.955Z,525
2016-09-11T08:51:15.700Z,510
2016-09-11T08:52:30.978Z,505
2016-09-11T08:53:16.122Z,505
2016-09-11T08:54:15.864Z,495
2016-09-11T08:55:15.862Z,490
2016-09-11T08:56:15.919Z,485
2016-09-11T08:57:16.229Z,475
2016-09-11T08:58:16.262Z,475
2016-09-11T08:59:16.616Z,475
2016-09-11T09:00:16.335Z,470
2016-09-11T09:01:16.089Z,465
2016-09-11T09:02:16.087Z,470
2016-09-11T09:03:16.134Z,470
2016-09-11T09:04:16.392Z,460
2016-09-11T09:05:16.480Z,455
2016-09-11T09:07:46.135Z,450
2016-09-11T09:08:31.234Z,455
2016-09-11T09:09:17.170Z,455
2016-09-11T09:10:16.396Z,455
2016-09-11T09:11:16.862Z,455
2016-09-11T09:12:16.468Z,455
2016-09-11T09:13:16.603Z,455
2016-09-11T09:15:16.556Z,445
2016-09-11T09:16:16.885Z,445
2016-09-11T09:17:31.557Z,455
2016-09-11T09:18:16.733Z,450
2016-09-11T09:19:16.961Z,450
2016-09-11T09:21:31.989Z,435
2016-09-11T09:22:16.821Z,430
2016-09-11T09:23:16.897Z,425
2016-09-11T09:24:32.123Z,425
2016-09-11T09:25:16.927Z,415
2016-09-11T09:26:17.566Z,410
2016-09-11T09:27:16.995Z,395
2016-09-11T09:28:17.224Z,380
2016-09-11T09:29:17.383Z,365
2016-09-11T09:30:17.431Z,340
2016-09-11T09:31:17.129Z,325
2016-09-11T09:32:17.486Z,310
2016-09-11T09:33:17.207Z,305
2016-09-11T09:34:17.254Z,305
2016-09-11T09:35:17.326Z,305
2016-09-11T09:36:17.294Z,305
2016-09-11T09:37:17.345Z,305
2016-09-11T09:38:32.906Z,305
2016-09-11T09:39:32.735Z,305
2016-09-11T09:40:17.468Z,305
2016-09-11T09:41:17.782Z,300
2016-09-11T09:42:17.647Z,300
2016-09-11T09:43:17.591Z,300
2016-09-11T09:45:17.920Z,295
2016-09-11T09:46:17.679Z,295
2016-09-11T09:47:17.997Z,295
2016-09-11T09:48:18.070Z,290
2016-09-11T09:49:32.719Z,290
2016-09-11T09:51:18.244Z,290
2016-09-11T09:52:18.488Z,290
2016-09-11T09:53:33.132Z,285
2016-09-11T09:54:17.949Z,285
2016-09-11T09:55:33.215Z,285
2016-09-11T09:56:18.634Z,285
2016-09-11T09:57:18.601Z,285
2016-09-11T09:58:18.080Z,285
2016-09-11T10:00:18.467Z,280
2016-09-11T10:01:33.114Z,280
2016-09-11T10:02:18.390Z,280
2016-09-11T10:03:18.571Z,280
2016-09-11T10:04:18.761Z,280
2016-09-11T10:05:18.317Z,280
2016-09-11T10:06:18.353Z,280
2016-09-11T10:07:33.320Z,280
2016-09-11T10:08:18.762Z,275
2016-09-11T10:09:33.392Z,275
2016-09-11T10:10:18.867Z,275
2016-09-11T10:11:33.769Z,275
2016-09-11T10:12:18.594Z,275
2016-09-11T10:13:18.617Z,270
2016-09-11T10:14:18.641Z,270
2016-09-11T10:15:18.750Z,270
2016-09-11T10:16:33.653Z,270
2016-09-11T10:17:18.746Z,270
2016-09-11T10:18:19.188Z,270
2016-09-11T10:19:19.154Z,265
2016-09-11T10:20:18.877Z,265
2016-09-11T10:21:18.892Z,265
2016-09-11T10:22:19.280Z,260
2016-09-11T10:23:18.964Z,260
2016-09-11T10:24:19.050Z,255
2016-09-11T10:25:19.122Z,255
2016-09-11T10:26:19.458Z,250
2016-09-11T10:28:19.479Z,245
2016-09-11T10:29:19.535Z,245
2016-09-11T10:30:19.197Z,245
2016-09-11T10:31:19.539Z,245
2016-09-11T10:32:34.205Z,240
2016-09-11T10:33:19.702Z,240
2016-09-11T10:34:19.676Z,235
2016-09-11T10:35:19.451Z,235
2016-09-11T10:36:19.691Z,235
2016-09-11T10:37:19.844Z,230
2016-09-11T10:39:19.521Z,230
2016-09-11T10:40:19.606Z,225
2016-09-11T10:41:19.603Z,230
2016-09-11T10:42:20.010Z,220
2016-09-11T10:43:34.906Z,220
2016-09-11T10:44:19.702Z,215
2016-09-11T10:45:20.014Z,215
2016-09-11T10:46:34.664Z,210
2016-09-11T10:47:34.743Z,210
2016-09-11T10:48:19.816Z,205
2016-09-11T10:49:19.854Z,205
2016-09-11T10:50:20.292Z,200
2016-09-11T10:51:20.933Z,200
2016-09-11T10:52:19.940Z,195
2016-09-11T10:53:19.994Z,195
2016-09-11T10:54:20.339Z,190
2016-09-11T10:55:20.358Z,190
2016-09-11T10:56:20.757Z,190
2016-09-11T10:57:20.175Z,190
2016-09-11T10:58:20.164Z,185
2016-09-11T10:59:35.413Z,185
2016-09-11T11:00:20.211Z,185
2016-09-11T11:01:20.260Z,180
2016-09-11T11:02:20.296Z,180
2016-09-11T11:03:35.628Z,180
2016-09-11T11:04:36.492Z,180
2016-09-11T11:05:35.301Z,175
2016-09-11T11:06:20.604Z,175
2016-09-11T11:07:20.487Z,175
2016-09-11T11:08:20.489Z,175
2016-09-11T11:09:20.513Z,170
2016-09-11T11:10:20.844Z,170
2016-09-11T11:11:20.896Z,170
2016-09-11T11:12:20.612Z,170
2016-09-11T11:13:20.684Z,170
2016-09-11T11:14:35.630Z,170
2016-09-11T11:15:20.810Z,170
2016-09-11T11:16:21.082Z,170
2016-09-11T11:17:20.855Z,170
2016-09-11T11:18:20.982Z,170
2016-09-11T11:19:35.769Z,170
2016-09-11T11:20:20.920Z,170
2016-09-11T11:21:21.233Z,170
2016-09-11T11:22:21.874Z,170
2016-09-11T11:23:35.910Z,170
2016-09-11T11:24:21.331Z,170
2016-09-11T11:25:21.384Z,170
2016-09-11T11:26:21.672Z,175
2016-09-11T11:27:22.182Z,170
2016-09-11T11:28:21.258Z,170
2016-09-11T11:29:21.242Z,175
2016-09-11T11:30:21.356Z,170
2016-09-11T11:31:21.263Z,170
2016-09-11T11:32:21.369Z,170
2016-09-11T11:33:21.312Z,170
2016-09-11T11:34:21.349Z,170
2016-09-11T11:35:21.798Z,170
2016-09-11T11:37:21.790Z,170
2016-09-11T11:38:21.487Z,170
2016-09-11T11:39:21.518Z,170
2016-09-11T11:40:21.591Z,170
2016-09-11T11:41:21.901Z,170
2016-09-11T11:42:21.649Z,170
2016-09-11T11:43:26.204Z,170
2016-09-11T11:44:22.034Z,170
2016-09-11T11:45:36.965Z,180
2016-09-11T11:46:51.641Z,175
2016-09-11T11:47:21.847Z,180
2016-09-11T11:48:36.908Z,180
2016-09-11T11:49:22.216Z,180
2016-09-11T11:50:23.054Z,175
2016-09-11T11:51:21.988Z,175
2016-09-11T11:52:22.542Z,175
2016-09-11T11:53:22.304Z,175
2016-09-11T11:54:22.017Z,180
2016-09-11T11:55:37.083Z,180
2016-09-11T11:56:22.430Z,185
2016-09-11T11:57:22.425Z,185
2016-09-11T11:58:22.155Z,190
2016-09-11T11:59:37.106Z,195
2016-09-11T12:00:37.508Z,195
2016-09-11T12:01:22.256Z,200
2016-09-11T12:02:52.165Z,205
2016-09-11T12:03:22.331Z,205
2016-09-11T12:04:22.358Z,205
2016-09-11T12:05:22.425Z,205
2016-09-11T12:06:37.354Z,205
2016-09-11T12:07:22.468Z,205
2016-09-11T12:08:22.485Z,200
2016-09-11T12:10:23.160Z,205
2016-09-11T12:11:22.572Z,200
2016-09-11T12:12:22.941Z,205
2016-09-11T12:13:22.974Z,205
2016-09-11T12:14:22.990Z,210
2016-09-11T12:16:22.737Z,215
2016-09-11T12:17:22.781Z,210
2016-09-11T12:18:52.679Z,205
2016-09-11T12:19:22.852Z,200
2016-09-11T12:20:23.167Z,200
2016-09-11T12:21:22.965Z,205
2016-09-11T12:22:23.598Z,205
2016-09-11T12:23:23.333Z,205
2016-09-11T12:24:23.024Z,205
2016-09-11T12:25:23.036Z,205
2016-09-11T12:26:23.138Z,200
2016-09-11T12:27:23.168Z,195
2016-09-11T12:28:23.157Z,195
2016-09-11T12:29:23.239Z,195
2016-09-11T12:30:23.871Z,195
2016-09-11T12:31:23.547Z,195
2016-09-11T12:33:23.320Z,190
2016-09-11T12:34:38.277Z,190
2016-09-11T12:35:38.300Z,190
2016-09-11T12:37:23.497Z,195
2016-09-11T12:38:23.542Z,195
2016-09-11T12:39:23.507Z,195
2016-09-11T12:40:23.957Z,200
2016-09-11T12:41:23.601Z,200
2016-09-11T12:42:23.942Z,210
2016-09-11T12:43:23.678Z,205
2016-09-11T12:44:23.700Z,205
2016-09-11T12:45:23.731Z,205
2016-09-11T12:46:23.756Z,205
2016-09-11T12:47:24.112Z,205
2016-09-11T12:48:24.114Z,200
2016-09-11T12:49:38.964Z,200
2016-09-11T12:50:24.590Z,195
2016-09-11T12:51:38.856Z,195
2016-09-11T12:52:39.185Z,190
2016-09-11T12:53:24.362Z,190
2016-09-11T12:54:24.070Z,190
2016-09-11T12:55:24.073Z,190
2016-09-11T12:56:24.081Z,190
2016-09-11T12:57:24.175Z,190
2016-09-11T12:58:24.320Z,185
2016-09-11T12:59:39.135Z,185
2016-09-11T13:00:24.352Z,185
2016-09-11T13:01:24.905Z,185
2016-09-11T13:02:39.691Z,185
2016-09-11T13:03:24.319Z,185
2016-09-11T13:04:24.691Z,180
2016-09-11T13:05:40.938Z,180
2016-09-11T13:06:24.424Z,180
2016-09-11T13:07:25.070Z,180
2016-09-11T13:08:24.587Z,185
2016-09-11T13:09:24.563Z,185
2016-09-11T13:10:39.770Z,185
2016-09-11T13:11:24.577Z,190
2016-09-11T13:13:24.643Z,190
2016-09-11T13:14:25.275Z,190
2016-09-11T13:15:25.135Z,190
2016-09-11T13:16:39.971Z,190
2016-09-11T13:17:24.817Z,190
2016-09-11T13:18:25.127Z,195
2016-09-11T13:19:24.841Z,195
2016-09-11T13:20:39.795Z,195
2016-09-11T13:21:40.154Z,195
2016-09-11T13:22:24.934Z,195
2016-09-11T13:24:25.068Z,195
2016-09-11T13:25:25.378Z,195
2016-09-11T13:26:25.609Z,200
2016-09-11T13:27:25.272Z,195
2016-09-11T13:29:40.101Z,190
2016-09-11T13:30:25.338Z,190
2016-09-11T13:31:40.166Z,185
2016-09-11T13:32:40.190Z,185
2016-09-11T13:33:25.358Z,185
2016-09-11T13:34:40.281Z,185
2016-09-11T13:35:25.444Z,185
2016-09-11T13:36:25.701Z,185
2016-09-11T13:37:40.350Z,180
2016-09-11T13:38:25.498Z,180
2016-09-11T13:39:40.461Z,180
2016-09-11T13:40:40.471Z,180
2016-09-11T13:41:25.567Z,180
2016-09-11T13:42:25.665Z,180
2016-09-11T13:43:55.520Z,180
2016-09-11T13:45:25.701Z,175
2016-09-11T13:46:25.758Z,175
2016-09-11T13:47:25.797Z,175
2016-09-11T13:48:41.050Z,170
2016-09-11T13:49:25.851Z,170
2016-09-11T13:50:40.785Z,170
2016-09-11T13:51:26.094Z,165
2016-09-11T13:52:25.953Z,165
2016-09-11T13:54:41.223Z,170
2016-09-11T13:55:26.349Z,170
2016-09-11T13:56:40.983Z,170
2016-09-11T13:57:41.352Z,175
2016-09-11T13:58:26.195Z,175
2016-09-11T13:59:26.187Z,175
2016-09-11T14:00:26.226Z,175
2016-09-11T14:02:26.629Z,170
2016-09-11T14:03:26.330Z,170
2016-09-11T14:04:26.328Z,165
2016-09-11T14:05:26.382Z,165
2016-09-11T14:07:26.728Z,165
2016-09-11T14:08:26.634Z,165
2016-09-11T14:09:41.757Z,165
2016-09-11T14:10:26.541Z,165
2016-09-11T14:11:26.599Z,165
2016-09-11T14:12:26.613Z,160
2016-09-11T14:13:26.636Z,155
2016-09-11T14:14:27.024Z,160
2016-09-11T14:15:26.789Z,150
2016-09-11T14:16:26.744Z,150
2016-09-11T14:17:41.678Z,150
2016-09-11T14:18:26.986Z,155
2016-09-11T14:19:41.753Z,155
2016-09-11T14:20:27.159Z,155
2016-09-11T14:22:41.983Z,150
2016-09-11T14:23:27.247Z,150
2016-09-11T14:25:41.949Z,150
2016-09-11T14:26:27.050Z,145
2016-09-11T14:27:27.392Z,145
2016-09-11T14:28:27.414Z,145
2016-09-11T14:29:42.079Z,145
2016-09-11T14:30:27.182Z,145
2016-09-11T14:31:27.255Z,145
2016-09-11T14:32:27.561Z,145
2016-09-11T14:33:27.664Z,140
2016-09-11T14:34:27.322Z,140
2016-09-11T14:35:27.768Z,145
2016-09-11T14:36:42.303Z,145
2016-09-11T14:37:27.424Z,150
2016-09-11T14:38:27.470Z,150
2016-09-11T14:39:42.745Z,150
2016-09-11T14:40:27.619Z,150
2016-09-11T14:41:27.916Z,150
2016-09-11T14:42:27.623Z,150
2016-09-11T14:43:42.595Z,150
2016-09-11T14:44:42.574Z,145
2016-09-11T14:45:27.673Z,150
2016-09-11T14:46:42.934Z,145
2016-09-11T14:47:27.759Z,145
2016-09-11T14:48:28.105Z,145
2016-09-11T14:49:43.055Z,145
2016-09-11T14:50:42.759Z,145
2016-09-11T14:51:27.873Z,145
2016-09-11T14:52:42.835Z,140
2016-09-11T14:54:28.273Z,130
2016-09-11T14:55:28.324Z,135
2016-09-11T14:57:42.991Z,130
2016-09-11T14:58:28.398Z,130
2016-09-11T15:00:28.163Z,125
2016-09-11T15:01:28.204Z,100
2016-09-11T15:02:28.444Z,95
2016-09-11T15:03:28.594Z,115
2016-09-11T15:04:28.618Z,120
2016-09-11T15:05:28.637Z,125
2016-09-11T15:06:28.668Z,125
2016-09-11T15:07:43.317Z,120
2016-09-11T15:08:43.497Z,120
2016-09-11T15:09:58.309Z,120